sensor_id;sensor_type;location;lat;lon;timestamp;P1;durP1;ratioP1;P2;durP2;ratioP2
14015;SDS011;7083;48.854;9.158;2023-05-07T00:02:12;1999.90;;;999.90;;
14015;SDS011;7083;48.854;9.158;2023-05-07T00:04:39;1999.90;;;999.90;;
14015;SDS011;7083;48.854;9.158;2023-05-07T00:07:06;1999.90;;;999.90;;
14015;SDS011;7083;48.854;9.158;2023-05-07T00:09:32;1999.90;;;999.90;;
14015;SDS011;7083;48.854;9.158;2023-05-07T00:11:59;1999.90;;;999.90;;
14015;SDS011;7083;48.854;9.158;2023-05-07T00:14:27;1999.90;;;999.90;;
14015;SDS011;7083;48.854;9.158;2023-05-07T00:16:53;1999.90;;;999.90;;
14015;SDS011;7083;48.854;9.158;2023-05-07T00:19:21;1999.90;;;999.90;;
14015;SDS011;7083;48.854;9.158;2023-05-07T00:21:47;1999.90;;;999.90;;
14015;SDS011;7083;48.854;9.158;2023-05-07T00:24:14;1999.90;;;999.90;;
14015;SDS011;7083;48.854;9.158;2023-05-07T00:26:41;1999.90;;;999.90;;
14015;SDS011;7083;48.854;9.158;2023-05-07T00:29:07;1999.90;;;999.90;;
14015;SDS011;7083;48.854;9.158;2023-05-07T00:31:35;1999.90;;;999.90;;
14015;SDS011;7083;48.854;9.158;2023-05-07T00:34:02;1999.90;;;999.90;;
14015;SDS011;7083;48.854;9.158;2023-05-07T00:36:29;1999.90;;;999.90;;
14015;SDS011;7083;48.854;9.158;2023-05-07T00:38:56;1999.90;;;999.90;;
14015;SDS011;7083;48.854;9.158;2023-05-07T00:41:25;1999.90;;;999.90;;
14015;SDS011;7083;48.854;9.158;2023-05-07T00:43:51;1999.90;;;999.90;;
14015;SDS011;7083;48.854;9.158;2023-05-07T00:46:18;1999.90;;;999.90;;
14015;SDS011;7083;48.854;9.158;2023-05-07T00:48:48;1999.90;;;999.90;;
14015;SDS011;7083;48.854;9.158;2023-05-07T00:51:16;1999.90;;;999.90;;
14015;SDS011;7083;48.854;9.158;2023-05-07T00:53:43;1999.90;;;999.90;;
14015;SDS011;7083;48.854;9.158;2023-05-07T00:56:10;1999.90;;;999.90;;
14015;SDS011;7083;48.854;9.158;2023-05-07T00:58:37;1999.90;;;999.90;;
14015;SDS011;7083;48.854;9.158;2023-05-07T01:01:04;1999.90;;;999.90;;
14015;SDS011;7083;48.854;9.158;2023-05-07T01:03:31;1999.90;;;999.90;;
14015;SDS011;7083;48.854;9.158;2023-05-07T01:05:59;1999.90;;;999.90;;
14015;SDS011;7083;48.854;9.158;2023-05-07T01:08:27;1999.90;;;999.90;;
14015;SDS011;7083;48.854;9.158;2023-05-07T01:10:55;1999.90;;;999.90;;
14015;SDS011;7083;48.854;9.158;2023-05-07T01:13:23;1999.90;;;999.90;;
14015;SDS011;7083;48.854;9.158;2023-05-07T01:15:50;1999.90;;;999.90;;
14015;SDS011;7083;48.854;9.158;2023-05-07T01:18:17;1999.90;;;999.90;;
14015;SDS011;7083;48.854;9.158;2023-05-07T01:20:44;1999.90;;;999.90;;
14015;SDS011;7083;48.854;9.158;2023-05-07T01:23:12;1999.90;;;999.90;;
14015;SDS011;7083;48.854;9.158;2023-05-07T01:25:40;1999.90;;;999.90;;
14015;SDS011;7083;48.854;9.158;2023-05-07T01:28:07;1999.90;;;999.90;;
14015;SDS011;7083;48.854;9.158;2023-05-07T01:30:33;1999.90;;;999.90;;
14015;SDS011;7083;48.854;9.158;2023-05-07T01:33:02;1999.90;;;999.90;;
14015;SDS011;7083;48.854;9.158;2023-05-07T01:35:34;1999.90;;;999.90;;
14015;SDS011;7083;48.854;9.158;2023-05-07T01:38:04;1999.90;;;999.90;;
14015;SDS011;7083;48.854;9.158;2023-05-07T01:40:33;1999.90;;;999.90;;
14015;SDS011;7083;48.854;9.158;2023-05-07T01:43:00;1999.90;;;999.90;;
14015;SDS011;7083;48.854;9.158;2023-05-07T01:45:28;1999.90;;;999.90;;
14015;SDS011;7083;48.854;9.158;2023-05-07T01:47:56;1999.90;;;999.90;;
14015;SDS011;7083;48.854;9.158;2023-05-07T01:50:25;1999.90;;;999.90;;
14015;SDS011;7083;48.854;9.158;2023-05-07T01:52:52;1999.90;;;999.90;;
14015;SDS011;7083;48.854;9.158;2023-05-07T01:55:19;1999.90;;;999.90;;
14015;SDS011;7083;48.854;9.158;2023-05-07T01:57:47;1999.90;;;999.90;;
14015;SDS011;7083;48.854;9.158;2023-05-07T02:00:14;1999.90;;;999.90;;
14015;SDS011;7083;48.854;9.158;2023-05-07T02:02:41;1999.90;;;999.90;;
14015;SDS011;7083;48.854;9.158;2023-05-07T02:05:08;1999.90;;;999.90;;
14015;SDS011;7083;48.854;9.158;2023-05-07T02:07:35;1999.90;;;999.90;;
14015;SDS011;7083;48.854;9.158;2023-05-07T02:10:01;1999.90;;;999.90;;
14015;SDS011;7083;48.854;9.158;2023-05-07T02:12:29;1999.90;;;999.90;;
14015;SDS011;7083;48.854;9.158;2023-05-07T02:14:57;1999.90;;;999.90;;
14015;SDS011;7083;48.854;9.158;2023-05-07T02:17:23;1999.90;;;999.90;;
14015;SDS011;7083;48.854;9.158;2023-05-07T02:19:50;1999.90;;;999.90;;
14015;SDS011;7083;48.854;9.158;2023-05-07T02:22:17;1999.90;;;999.90;;
14015;SDS011;7083;48.854;9.158;2023-05-07T02:24:44;1999.90;;;999.90;;
14015;SDS011;7083;48.854;9.158;2023-05-07T02:27:10;1999.90;;;999.90;;
14015;SDS011;7083;48.854;9.158;2023-05-07T02:29:37;1999.90;;;999.90;;
14015;SDS011;7083;48.854;9.158;2023-05-07T02:32:07;1999.90;;;999.90;;
14015;SDS011;7083;48.854;9.158;2023-05-07T02:34:34;1999.90;;;999.90;;
14015;SDS011;7083;48.854;9.158;2023-05-07T02:37:00;1999.90;;;999.90;;
14015;SDS011;7083;48.854;9.158;2023-05-07T02:39:27;1999.90;;;999.90;;
14015;SDS011;7083;48.854;9.158;2023-05-07T02:41:54;1999.90;;;999.90;;
14015;SDS011;7083;48.854;9.158;2023-05-07T02:44:20;1999.90;;;999.90;;
14015;SDS011;7083;48.854;9.158;2023-05-07T02:46:47;1999.90;;;999.90;;
14015;SDS011;7083;48.854;9.158;2023-05-07T02:49:15;1999.90;;;999.90;;
14015;SDS011;7083;48.854;9.158;2023-05-07T02:51:41;1999.90;;;999.90;;
14015;SDS011;7083;48.854;9.158;2023-05-07T02:54:08;1999.90;;;999.90;;
14015;SDS011;7083;48.854;9.158;2023-05-07T02:56:35;1999.90;;;999.90;;
14015;SDS011;7083;48.854;9.158;2023-05-07T02:59:01;1999.90;;;999.90;;
14015;SDS011;7083;48.854;9.158;2023-05-07T03:01:28;1999.90;;;999.90;;
14015;SDS011;7083;48.854;9.158;2023-05-07T03:03:55;1999.90;;;999.90;;
14015;SDS011;7083;48.854;9.158;2023-05-07T03:06:23;1999.90;;;999.90;;
14015;SDS011;7083;48.854;9.158;2023-05-07T03:08:50;1999.90;;;999.90;;
14015;SDS011;7083;48.854;9.158;2023-05-07T03:11:16;1999.90;;;999.90;;
14015;SDS011;7083;48.854;9.158;2023-05-07T03:13:43;1999.90;;;999.90;;
14015;SDS011;7083;48.854;9.158;2023-05-07T03:16:10;1999.90;;;999.90;;
14015;SDS011;7083;48.854;9.158;2023-05-07T03:18:36;1999.90;;;999.90;;
14015;SDS011;7083;48.854;9.158;2023-05-07T03:21:03;1999.90;;;999.90;;
14015;SDS011;7083;48.854;9.158;2023-05-07T03:23:31;1999.90;;;999.90;;
14015;SDS011;7083;48.854;9.158;2023-05-07T03:25:58;1999.90;;;999.90;;
14015;SDS011;7083;48.854;9.158;2023-05-07T03:28:24;1999.90;;;999.90;;
14015;SDS011;7083;48.854;9.158;2023-05-07T03:30:51;1999.90;;;999.90;;
14015;SDS011;7083;48.854;9.158;2023-05-07T03:33:18;1999.90;;;999.90;;
14015;SDS011;7083;48.854;9.158;2023-05-07T03:35:44;1999.90;;;999.90;;
14015;SDS011;7083;48.854;9.158;2023-05-07T03:38:11;1999.90;;;999.90;;
14015;SDS011;7083;48.854;9.158;2023-05-07T03:40:39;1999.90;;;999.90;;
14015;SDS011;7083;48.854;9.158;2023-05-07T03:43:05;1999.90;;;999.90;;
14015;SDS011;7083;48.854;9.158;2023-05-07T03:45:33;1999.90;;;999.90;;
14015;SDS011;7083;48.854;9.158;2023-05-07T03:47:59;1999.90;;;999.90;;
14015;SDS011;7083;48.854;9.158;2023-05-07T03:50:26;1999.90;;;999.90;;
14015;SDS011;7083;48.854;9.158;2023-05-07T03:52:53;1999.90;;;999.90;;
14015;SDS011;7083;48.854;9.158;2023-05-07T03:55:19;1999.90;;;999.90;;
14015;SDS011;7083;48.854;9.158;2023-05-07T03:57:48;1999.90;;;999.90;;
14015;SDS011;7083;48.854;9.158;2023-05-07T04:00:14;1999.90;;;999.90;;
14015;SDS011;7083;48.854;9.158;2023-05-07T04:02:41;1999.90;;;999.90;;
14015;SDS011;7083;48.854;9.158;2023-05-07T04:05:08;1999.90;;;999.90;;
14015;SDS011;7083;48.854;9.158;2023-05-07T04:07:35;1999.90;;;999.90;;
14015;SDS011;7083;48.854;9.158;2023-05-07T04:10:01;1999.90;;;999.90;;
14015;SDS011;7083;48.854;9.158;2023-05-07T04:12:28;1999.90;;;999.90;;
14015;SDS011;7083;48.854;9.158;2023-05-07T04:14:56;1999.90;;;999.90;;
14015;SDS011;7083;48.854;9.158;2023-05-07T04:17:23;1999.90;;;999.90;;
14015;SDS011;7083;48.854;9.158;2023-05-07T04:19:49;1999.90;;;999.90;;
14015;SDS011;7083;48.854;9.158;2023-05-07T04:22:16;1999.90;;;999.90;;
14015;SDS011;7083;48.854;9.158;2023-05-07T04:24:43;1999.90;;;999.90;;
14015;SDS011;7083;48.854;9.158;2023-05-07T04:27:09;1999.90;;;999.90;;
14015;SDS011;7083;48.854;9.158;2023-05-07T04:29:36;1999.90;;;999.90;;
14015;SDS011;7083;48.854;9.158;2023-05-07T04:32:08;1999.90;;;999.90;;
14015;SDS011;7083;48.854;9.158;2023-05-07T04:34:35;1999.90;;;999.90;;
14015;SDS011;7083;48.854;9.158;2023-05-07T04:37:01;1999.90;;;999.90;;
14015;SDS011;7083;48.854;9.158;2023-05-07T04:39:28;1999.90;;;999.90;;
14015;SDS011;7083;48.854;9.158;2023-05-07T04:41:55;1999.90;;;999.90;;
14015;SDS011;7083;48.854;9.158;2023-05-07T04:44:21;1999.90;;;999.90;;
14015;SDS011;7083;48.854;9.158;2023-05-07T04:46:48;1999.90;;;999.90;;
14015;SDS011;7083;48.854;9.158;2023-05-07T04:49:16;1999.90;;;999.90;;
14015;SDS011;7083;48.854;9.158;2023-05-07T04:51:43;1999.90;;;999.90;;
14015;SDS011;7083;48.854;9.158;2023-05-07T04:54:09;1999.90;;;999.90;;
14015;SDS011;7083;48.854;9.158;2023-05-07T04:56:36;1999.90;;;999.90;;
14015;SDS011;7083;48.854;9.158;2023-05-07T04:59:03;1999.90;;;999.90;;
14015;SDS011;7083;48.854;9.158;2023-05-07T05:01:30;1999.90;;;999.90;;
14015;SDS011;7083;48.854;9.158;2023-05-07T05:03:57;1999.90;;;999.90;;
14015;SDS011;7083;48.854;9.158;2023-05-07T05:06:26;1999.90;;;999.90;;
14015;SDS011;7083;48.854;9.158;2023-05-07T05:08:52;1999.90;;;999.90;;
14015;SDS011;7083;48.854;9.158;2023-05-07T05:11:19;1999.90;;;999.90;;
14015;SDS011;7083;48.854;9.158;2023-05-07T05:13:46;1999.90;;;999.90;;
14015;SDS011;7083;48.854;9.158;2023-05-07T05:16:13;1999.90;;;999.90;;
14015;SDS011;7083;48.854;9.158;2023-05-07T05:18:40;1999.90;;;999.90;;
14015;SDS011;7083;48.854;9.158;2023-05-07T05:21:07;1999.90;;;999.90;;
14015;SDS011;7083;48.854;9.158;2023-05-07T05:23:35;1999.90;;;999.90;;
14015;SDS011;7083;48.854;9.158;2023-05-07T05:26:02;1999.90;;;999.90;;
14015;SDS011;7083;48.854;9.158;2023-05-07T05:28:28;1999.90;;;999.90;;
14015;SDS011;7083;48.854;9.158;2023-05-07T05:30:55;1999.90;;;999.90;;
14015;SDS011;7083;48.854;9.158;2023-05-07T05:33:21;1999.90;;;999.90;;
14015;SDS011;7083;48.854;9.158;2023-05-07T05:35:49;1999.90;;;999.90;;
14015;SDS011;7083;48.854;9.158;2023-05-07T05:38:15;1999.90;;;999.90;;
14015;SDS011;7083;48.854;9.158;2023-05-07T05:40:43;1999.90;;;999.90;;
14015;SDS011;7083;48.854;9.158;2023-05-07T05:43:10;1999.90;;;999.90;;
14015;SDS011;7083;48.854;9.158;2023-05-07T05:45:37;1999.90;;;999.90;;
14015;SDS011;7083;48.854;9.158;2023-05-07T05:48:04;1999.90;;;999.90;;
14015;SDS011;7083;48.854;9.158;2023-05-07T05:50:30;1999.90;;;999.90;;
14015;SDS011;7083;48.854;9.158;2023-05-07T05:52:57;1589.73;;;907.53;;
14015;SDS011;7083;48.854;9.158;2023-05-07T05:55:28;773.13;;;726.47;;
14015;SDS011;7083;48.854;9.158;2023-05-07T05:58:01;664.33;;;626.57;;
14015;SDS011;7083;48.854;9.158;2023-05-07T06:00:28;671.40;;;633.77;;
14015;SDS011;7083;48.854;9.158;2023-05-07T06:02:57;457.20;;;435.87;;
14015;SDS011;7083;48.854;9.158;2023-05-07T06:05:24;267.45;;;255.95;;
14015;SDS011;7083;48.854;9.158;2023-05-07T06:07:50;303.20;;;290.60;;
14015;SDS011;7083;48.854;9.158;2023-05-07T06:10:17;163.77;;;156.83;;
14015;SDS011;7083;48.854;9.158;2023-05-07T06:12:44;108.43;;;103.93;;
14015;SDS011;7083;48.854;9.158;2023-05-07T06:15:12;176.70;;;169.63;;
14015;SDS011;7083;48.854;9.158;2023-05-07T06:17:40;156.07;;;149.73;;
14015;SDS011;7083;48.854;9.158;2023-05-07T06:20:10;269.63;;;258.87;;
14015;SDS011;7083;48.854;9.158;2023-05-07T06:22:36;303.27;;;291.17;;
14015;SDS011;7083;48.854;9.158;2023-05-07T06:25:03;409.17;;;391.97;;
14015;SDS011;7083;48.854;9.158;2023-05-07T06:27:31;409.37;;;392.07;;
14015;SDS011;7083;48.854;9.158;2023-05-07T06:29:57;418.57;;;400.97;;
14015;SDS011;7083;48.854;9.158;2023-05-07T06:32:25;408.70;;;391.13;;
14015;SDS011;7083;48.854;9.158;2023-05-07T06:34:52;421.83;;;403.90;;
14015;SDS011;7083;48.854;9.158;2023-05-07T06:37:19;397.63;;;380.70;;
14015;SDS011;7083;48.854;9.158;2023-05-07T06:39:49;364.17;;;349.07;;
14015;SDS011;7083;48.854;9.158;2023-05-07T06:42:15;365.77;;;350.80;;
14015;SDS011;7083;48.854;9.158;2023-05-07T06:44:42;368.97;;;353.80;;
14015;SDS011;7083;48.854;9.158;2023-05-07T06:47:08;367.20;;;352.17;;
14015;SDS011;7083;48.854;9.158;2023-05-07T06:49:36;365.87;;;350.83;;
14015;SDS011;7083;48.854;9.158;2023-05-07T06:52:03;377.53;;;362.10;;
14015;SDS011;7083;48.854;9.158;2023-05-07T06:54:30;369.17;;;354.07;;
14015;SDS011;7083;48.854;9.158;2023-05-07T06:56:56;378.73;;;363.13;;
14015;SDS011;7083;48.854;9.158;2023-05-07T06:59:23;394.27;;;377.87;;
14015;SDS011;7083;48.854;9.158;2023-05-07T07:01:50;396.13;;;379.53;;
14015;SDS011;7083;48.854;9.158;2023-05-07T07:04:17;402.87;;;385.90;;
14015;SDS011;7083;48.854;9.158;2023-05-07T07:06:45;399.83;;;382.93;;
14015;SDS011;7083;48.854;9.158;2023-05-07T07:09:13;432.53;;;413.50;;
14015;SDS011;7083;48.854;9.158;2023-05-07T07:11:40;457.43;;;436.50;;
14015;SDS011;7083;48.854;9.158;2023-05-07T07:14:07;508.77;;;484.17;;
14015;SDS011;7083;48.854;9.158;2023-05-07T07:16:33;526.63;;;500.47;;
14015;SDS011;7083;48.854;9.158;2023-05-07T07:19:00;629.60;;;596.50;;
14015;SDS011;7083;48.854;9.158;2023-05-07T07:21:27;606.17;;;574.23;;
14015;SDS011;7083;48.854;9.158;2023-05-07T07:23:55;571.13;;;541.73;;
14015;SDS011;7083;48.854;9.158;2023-05-07T07:26:21;647.90;;;613.77;;
14015;SDS011;7083;48.854;9.158;2023-05-07T07:28:48;723.97;;;683.63;;
14015;SDS011;7083;48.854;9.158;2023-05-07T07:31:14;660.63;;;625.80;;
14015;SDS011;7083;48.854;9.158;2023-05-07T07:33:41;629.80;;;597.80;;
14015;SDS011;7083;48.854;9.158;2023-05-07T07:36:09;543.90;;;518.07;;
14015;SDS011;7083;48.854;9.158;2023-05-07T07:38:36;429.37;;;411.13;;
14015;SDS011;7083;48.854;9.158;2023-05-07T07:41:04;392.77;;;375.77;;
14015;SDS011;7083;48.854;9.158;2023-05-07T07:43:30;485.37;;;461.73;;
14015;SDS011;7083;48.854;9.158;2023-05-07T07:45:57;446.90;;;427.17;;
14015;SDS011;7083;48.854;9.158;2023-05-07T07:48:24;434.90;;;415.97;;
14015;SDS011;7083;48.854;9.158;2023-05-07T07:50:50;407.10;;;389.57;;
14015;SDS011;7083;48.854;9.158;2023-05-07T07:53:17;349.53;;;335.13;;
14015;SDS011;7083;48.854;9.158;2023-05-07T07:55:44;392.97;;;376.07;;
14015;SDS011;7083;48.854;9.158;2023-05-07T07:58:12;522.03;;;497.27;;
14015;SDS011;7083;48.854;9.158;2023-05-07T08:00:39;562.50;;;533.87;;
14015;SDS011;7083;48.854;9.158;2023-05-07T08:03:05;562.17;;;533.57;;
14015;SDS011;7083;48.854;9.158;2023-05-07T08:05:35;622.13;;;589.40;;
14015;SDS011;7083;48.854;9.158;2023-05-07T08:08:01;600.53;;;568.90;;
14015;SDS011;7083;48.854;9.158;2023-05-07T08:10:28;583.50;;;552.87;;
14015;SDS011;7083;48.854;9.158;2023-05-07T08:12:58;569.67;;;540.53;;
14015;SDS011;7083;48.854;9.158;2023-05-07T08:15:26;559.07;;;530.97;;
14015;SDS011;7083;48.854;9.158;2023-05-07T08:17:53;613.13;;;581.33;;
14015;SDS011;7083;48.854;9.158;2023-05-07T08:20:21;561.40;;;533.83;;
14015;SDS011;7083;48.854;9.158;2023-05-07T08:22:47;703.73;;;663.73;;
14015;SDS011;7083;48.854;9.158;2023-05-07T08:25:14;619.90;;;587.73;;
14015;SDS011;7083;48.854;9.158;2023-05-07T08:27:41;650.67;;;615.87;;
14015;SDS011;7083;48.854;9.158;2023-05-07T08:30:08;610.87;;;579.00;;
14015;SDS011;7083;48.854;9.158;2023-05-07T08:32:36;617.30;;;584.80;;
14015;SDS011;7083;48.854;9.158;2023-05-07T08:35:03;666.00;;;627.87;;
14015;SDS011;7083;48.854;9.158;2023-05-07T08:37:31;644.60;;;609.77;;
14015;SDS011;7083;48.854;9.158;2023-05-07T08:39:57;608.90;;;576.73;;
14015;SDS011;7083;48.854;9.158;2023-05-07T08:42:24;608.50;;;576.50;;
14015;SDS011;7083;48.854;9.158;2023-05-07T08:44:51;637.00;;;602.37;;
14015;SDS011;7083;48.854;9.158;2023-05-07T08:47:24;680.83;;;642.37;;
14015;SDS011;7083;48.854;9.158;2023-05-07T08:49:56;752.33;;;706.73;;
14015;SDS011;7083;48.854;9.158;2023-05-07T08:52:24;708.37;;;667.33;;
14015;SDS011;7083;48.854;9.158;2023-05-07T08:54:52;1999.90;;;999.90;;
14015;SDS011;7083;48.854;9.158;2023-05-07T08:57:18;1161.37;;;795.43;;
14015;SDS011;7083;48.854;9.158;2023-05-07T08:59:46;757.13;;;711.03;;
14015;SDS011;7083;48.854;9.158;2023-05-07T09:02:13;739.80;;;694.33;;
14015;SDS011;7083;48.854;9.158;2023-05-07T09:04:40;1999.90;;;999.90;;
14015;SDS011;7083;48.854;9.158;2023-05-07T09:07:08;1999.90;;;999.90;;
14015;SDS011;7083;48.854;9.158;2023-05-07T09:09:35;1999.90;;;999.90;;
14015;SDS011;7083;48.854;9.158;2023-05-07T09:12:01;1999.90;;;999.90;;
14015;SDS011;7083;48.854;9.158;2023-05-07T09:14:28;1999.90;;;999.90;;
14015;SDS011;7083;48.854;9.158;2023-05-07T09:16:55;1999.90;;;999.90;;
14015;SDS011;7083;48.854;9.158;2023-05-07T09:19:22;1999.90;;;999.90;;
14015;SDS011;7083;48.854;9.158;2023-05-07T09:21:49;1999.90;;;999.90;;
14015;SDS011;7083;48.854;9.158;2023-05-07T09:24:24;1999.90;;;999.90;;
14015;SDS011;7083;48.854;9.158;2023-05-07T09:26:51;1999.90;;;999.90;;
14015;SDS011;7083;48.854;9.158;2023-05-07T09:29:18;1999.90;;;999.90;;
14015;SDS011;7083;48.854;9.158;2023-05-07T09:31:44;1999.90;;;999.90;;
14015;SDS011;7083;48.854;9.158;2023-05-07T09:34:11;1999.90;;;999.90;;
14015;SDS011;7083;48.854;9.158;2023-05-07T09:36:38;1999.90;;;999.90;;
14015;SDS011;7083;48.854;9.158;2023-05-07T09:39:05;1999.90;;;999.90;;
14015;SDS011;7083;48.854;9.158;2023-05-07T09:41:33;1999.90;;;999.90;;
14015;SDS011;7083;48.854;9.158;2023-05-07T09:44:09;1999.90;;;999.90;;
14015;SDS011;7083;48.854;9.158;2023-05-07T09:46:36;1999.90;;;999.90;;
14015;SDS011;7083;48.854;9.158;2023-05-07T09:49:04;1999.90;;;999.90;;
14015;SDS011;7083;48.854;9.158;2023-05-07T09:51:37;1999.90;;;999.90;;
14015;SDS011;7083;48.854;9.158;2023-05-07T09:54:09;1999.90;;;999.90;;
14015;SDS011;7083;48.854;9.158;2023-05-07T09:56:37;1999.90;;;999.90;;
14015;SDS011;7083;48.854;9.158;2023-05-07T09:59:07;1999.90;;;999.90;;
14015;SDS011;7083;48.854;9.158;2023-05-07T10:01:36;1999.90;;;999.90;;
14015;SDS011;7083;48.854;9.158;2023-05-07T10:04:03;1999.90;;;999.90;;
14015;SDS011;7083;48.854;9.158;2023-05-07T10:06:33;1999.90;;;999.90;;
14015;SDS011;7083;48.854;9.158;2023-05-07T10:09:01;1999.90;;;999.90;;
14015;SDS011;7083;48.854;9.158;2023-05-07T10:11:28;1999.90;;;999.90;;
14015;SDS011;7083;48.854;9.158;2023-05-07T10:13:56;1999.90;;;999.90;;
14015;SDS011;7083;48.854;9.158;2023-05-07T10:16:23;1999.90;;;999.90;;
14015;SDS011;7083;48.854;9.158;2023-05-07T10:18:52;1999.90;;;999.90;;
14015;SDS011;7083;48.854;9.158;2023-05-07T10:21:20;1999.90;;;999.90;;
14015;SDS011;7083;48.854;9.158;2023-05-07T10:23:49;1999.90;;;999.90;;
14015;SDS011;7083;48.854;9.158;2023-05-07T10:26:17;1999.90;;;999.90;;
14015;SDS011;7083;48.854;9.158;2023-05-07T10:28:47;1999.90;;;999.90;;
14015;SDS011;7083;48.854;9.158;2023-05-07T10:31:26;1999.90;;;999.90;;
14015;SDS011;7083;48.854;9.158;2023-05-07T10:34:07;1999.90;;;999.90;;
14015;SDS011;7083;48.854;9.158;2023-05-07T10:36:35;1999.90;;;999.90;;
14015;SDS011;7083;48.854;9.158;2023-05-07T10:39:04;1999.90;;;999.90;;
14015;SDS011;7083;48.854;9.158;2023-05-07T10:41:32;1999.90;;;999.90;;
14015;SDS011;7083;48.854;9.158;2023-05-07T10:43:59;1999.90;;;999.90;;
14015;SDS011;7083;48.854;9.158;2023-05-07T10:46:28;1999.90;;;999.90;;
14015;SDS011;7083;48.854;9.158;2023-05-07T10:49:08;1999.90;;;999.90;;
14015;SDS011;7083;48.854;9.158;2023-05-07T10:51:36;1999.90;;;999.90;;
14015;SDS011;7083;48.854;9.158;2023-05-07T10:54:19;1999.90;;;999.90;;
14015;SDS011;7083;48.854;9.158;2023-05-07T10:56:51;1999.90;;;999.90;;
14015;SDS011;7083;48.854;9.158;2023-05-07T10:59:34;1999.90;;;999.90;;
14015;SDS011;7083;48.854;9.158;2023-05-07T11:02:09;1999.90;;;999.90;;
14015;SDS011;7083;48.854;9.158;2023-05-07T11:04:39;1999.90;;;999.90;;
14015;SDS011;7083;48.854;9.158;2023-05-07T11:09:58;1999.90;;;999.90;;
14015;SDS011;7083;48.854;9.158;2023-05-07T11:15:36;1999.90;;;999.90;;
14015;SDS011;7083;48.854;9.158;2023-05-07T11:18:05;1999.90;;;999.90;;
14015;SDS011;7083;48.854;9.158;2023-05-07T11:20:55;1999.90;;;999.90;;
14015;SDS011;7083;48.854;9.158;2023-05-07T11:26:42;1999.90;;;999.90;;
14015;SDS011;7083;48.854;9.158;2023-05-07T11:29:11;1999.90;;;999.90;;
14015;SDS011;7083;48.854;9.158;2023-05-07T11:31:38;1999.90;;;999.90;;
14015;SDS011;7083;48.854;9.158;2023-05-07T11:34:06;1999.90;;;999.90;;
14015;SDS011;7083;48.854;9.158;2023-05-07T11:36:34;1999.90;;;999.90;;
14015;SDS011;7083;48.854;9.158;2023-05-07T11:39:22;1999.90;;;999.90;;
14015;SDS011;7083;48.854;9.158;2023-05-07T11:41:50;1999.90;;;999.90;;
14015;SDS011;7083;48.854;9.158;2023-05-07T11:44:17;1999.90;;;999.90;;
14015;SDS011;7083;48.854;9.158;2023-05-07T11:46:44;1999.90;;;999.90;;
14015;SDS011;7083;48.854;9.158;2023-05-07T11:49:12;1999.90;;;999.90;;
14015;SDS011;7083;48.854;9.158;2023-05-07T11:51:39;1999.90;;;999.90;;
14015;SDS011;7083;48.854;9.158;2023-05-07T11:54:07;1999.90;;;999.90;;
14015;SDS011;7083;48.854;9.158;2023-05-07T11:56:36;1999.90;;;999.90;;
14015;SDS011;7083;48.854;9.158;2023-05-07T11:59:03;1999.90;;;999.90;;
14015;SDS011;7083;48.854;9.158;2023-05-07T12:01:30;1999.90;;;999.90;;
14015;SDS011;7083;48.854;9.158;2023-05-07T12:03:57;1999.90;;;999.90;;
14015;SDS011;7083;48.854;9.158;2023-05-07T12:06:25;1999.90;;;999.90;;
14015;SDS011;7083;48.854;9.158;2023-05-07T12:08:52;1999.90;;;999.90;;
14015;SDS011;7083;48.854;9.158;2023-05-07T12:11:22;1999.90;;;999.90;;
14015;SDS011;7083;48.854;9.158;2023-05-07T12:13:50;1999.90;;;999.90;;
14015;SDS011;7083;48.854;9.158;2023-05-07T12:16:17;1999.90;;;999.90;;
14015;SDS011;7083;48.854;9.158;2023-05-07T12:18:44;1999.90;;;999.90;;
14015;SDS011;7083;48.854;9.158;2023-05-07T12:21:11;1999.90;;;999.90;;
14015;SDS011;7083;48.854;9.158;2023-05-07T12:23:39;1999.90;;;999.90;;
14015;SDS011;7083;48.854;9.158;2023-05-07T12:26:06;1999.90;;;999.90;;
14015;SDS011;7083;48.854;9.158;2023-05-07T12:28:38;1999.90;;;999.90;;
14015;SDS011;7083;48.854;9.158;2023-05-07T12:31:05;1999.90;;;999.90;;
14015;SDS011;7083;48.854;9.158;2023-05-07T12:33:32;1999.90;;;999.90;;
14015;SDS011;7083;48.854;9.158;2023-05-07T12:36:02;1999.90;;;999.90;;
14015;SDS011;7083;48.854;9.158;2023-05-07T12:38:34;1999.90;;;999.90;;
14015;SDS011;7083;48.854;9.158;2023-05-07T12:41:04;1999.90;;;999.90;;
14015;SDS011;7083;48.854;9.158;2023-05-07T12:43:32;1999.90;;;999.90;;
14015;SDS011;7083;48.854;9.158;2023-05-07T12:45:59;1999.90;;;999.90;;
14015;SDS011;7083;48.854;9.158;2023-05-07T12:48:27;1999.90;;;999.90;;
14015;SDS011;7083;48.854;9.158;2023-05-07T12:50:55;1999.90;;;999.90;;
14015;SDS011;7083;48.854;9.158;2023-05-07T12:53:22;1999.90;;;999.90;;
14015;SDS011;7083;48.854;9.158;2023-05-07T12:55:51;1999.90;;;999.90;;
14015;SDS011;7083;48.854;9.158;2023-05-07T12:58:20;1999.90;;;999.90;;
14015;SDS011;7083;48.854;9.158;2023-05-07T13:00:51;1999.90;;;999.90;;
14015;SDS011;7083;48.854;9.158;2023-05-07T13:03:21;1999.90;;;999.90;;
14015;SDS011;7083;48.854;9.158;2023-05-07T13:05:50;1999.90;;;999.90;;
14015;SDS011;7083;48.854;9.158;2023-05-07T13:08:23;771.87;;;721.20;;
14015;SDS011;7083;48.854;9.158;2023-05-07T13:10:50;774.60;;;725.47;;
14015;SDS011;7083;48.854;9.158;2023-05-07T13:13:17;745.27;;;700.47;;
14015;SDS011;7083;48.854;9.158;2023-05-07T13:15:45;711.13;;;670.00;;
14015;SDS011;7083;48.854;9.158;2023-05-07T13:18:12;675.93;;;638.10;;
14015;SDS011;7083;48.854;9.158;2023-05-07T13:20:38;657.23;;;621.70;;
14015;SDS011;7083;48.854;9.158;2023-05-07T13:23:05;651.73;;;616.77;;
14015;SDS011;7083;48.854;9.158;2023-05-07T13:25:32;658.77;;;622.83;;
14015;SDS011;7083;48.854;9.158;2023-05-07T13:27:59;662.70;;;626.43;;
14015;SDS011;7083;48.854;9.158;2023-05-07T13:30:25;665.77;;;629.27;;
14015;SDS011;7083;48.854;9.158;2023-05-07T13:32:54;693.23;;;653.77;;
14015;SDS011;7083;48.854;9.158;2023-05-07T13:35:21;670.53;;;632.87;;
14015;SDS011;7083;48.854;9.158;2023-05-07T13:37:48;662.77;;;626.03;;
14015;SDS011;7083;48.854;9.158;2023-05-07T13:40:15;529.20;;;503.37;;
14015;SDS011;7083;48.854;9.158;2023-05-07T13:42:41;395.30;;;378.10;;
14015;SDS011;7083;48.854;9.158;2023-05-07T13:45:08;474.73;;;452.90;;
14015;SDS011;7083;48.854;9.158;2023-05-07T13:47:38;364.17;;;348.10;;
14015;SDS011;7083;48.854;9.158;2023-05-07T13:50:07;307.63;;;294.00;;
14015;SDS011;7083;48.854;9.158;2023-05-07T13:52:36;307.80;;;293.30;;
14015;SDS011;7083;48.854;9.158;2023-05-07T13:55:03;347.63;;;331.30;;
14015;SDS011;7083;48.854;9.158;2023-05-07T13:57:30;518.60;;;493.30;;
14015;SDS011;7083;48.854;9.158;2023-05-07T13:59:57;617.13;;;585.57;;
14015;SDS011;7083;48.854;9.158;2023-05-07T14:02:23;555.17;;;525.40;;
14015;SDS011;7083;48.854;9.158;2023-05-07T14:04:50;634.30;;;598.43;;
14015;SDS011;7083;48.854;9.158;2023-05-07T14:07:18;575.13;;;545.23;;
14015;SDS011;7083;48.854;9.158;2023-05-07T14:09:45;594.20;;;563.83;;
14015;SDS011;7083;48.854;9.158;2023-05-07T14:12:11;550.27;;;521.83;;
14015;SDS011;7083;48.854;9.158;2023-05-07T14:14:38;574.87;;;544.53;;